createdAt,value
2019-02-14T12:15:25.215Z,22.68
2019-02-14T12:17:09.643Z,22.68
2019-02-14T12:18:54.069Z,22.71
2019-02-14T12:20:38.498Z,22.74
2019-02-14T12:22:22.922Z,22.79
2019-02-14T12:24:09.522Z,22.83
2019-02-14T12:25:53.938Z,22.88
2019-02-14T12:27:38.372Z,22.95
2019-02-14T12:29:22.772Z,23.00
2019-02-14T12:31:07.200Z,23.06
2019-02-14T12:32:51.599Z,23.12
2019-02-14T12:34:36.028Z,23.20
2019-02-14T12:36:20.477Z,23.25
2019-02-14T12:38:05.066Z,23.31
2019-02-14T12:39:49.602Z,23.33
2019-02-14T12:41:34.087Z,23.37
2019-02-14T12:43:18.583Z,23.42
2019-02-14T12:45:03.088Z,23.46
2019-02-14T12:46:47.514Z,23.48
2019-02-14T12:48:31.935Z,23.50
2019-02-14T12:50:16.341Z,23.53
2019-02-14T12:52:00.764Z,23.55
2019-02-14T12:53:45.163Z,23.57
2019-02-14T12:55:29.591Z,23.60
2019-02-14T12:57:13.991Z,23.63
2019-02-14T12:58:58.418Z,23.68
2019-02-14T13:00:42.819Z,23.70
2019-02-14T13:02:27.246Z,23.72
2019-02-14T13:04:11.646Z,23.73
2019-02-14T13:05:56.293Z,23.73
2019-02-14T13:07:40.683Z,23.73
2019-02-14T13:09:25.199Z,23.74
2019-02-14T13:11:09.628Z,23.76
2019-02-14T13:12:54.052Z,23.76
2019-02-14T13:14:38.478Z,23.77
2019-02-14T13:16:22.966Z,23.79
2019-02-14T13:18:07.396Z,23.80
2019-02-14T13:19:51.818Z,23.83
2019-02-14T13:21:36.248Z,23.86
2019-02-14T13:23:20.647Z,23.89
2019-02-14T13:25:08.118Z,23.92
2019-02-14T13:26:52.546Z,23.96
2019-02-14T13:28:37.032Z,23.98
2019-02-14T13:30:25.927Z,23.99
2019-02-14T13:32:10.373Z,24.00
2019-02-14T13:33:54.790Z,23.99
2019-02-14T13:35:39.210Z,24.00
2019-02-14T13:37:23.722Z,24.04
2019-02-14T13:39:08.123Z,24.08
2019-02-14T13:40:54.595Z,24.09
2019-02-14T13:42:38.645Z,24.10
2019-02-14T13:44:23.072Z,24.13
2019-02-14T13:46:07.565Z,24.15
2019-02-14T13:47:52.967Z,24.18
2019-02-14T13:49:37.394Z,24.21
2019-02-14T13:51:21.824Z,24.26
2019-02-14T13:53:06.257Z,24.23
2019-02-14T13:54:50.655Z,24.19
2019-02-14T13:56:35.082Z,24.19
2019-02-14T13:58:19.484Z,24.21
2019-02-14T14:00:09.669Z,24.25
2019-02-14T14:01:54.070Z,24.27
2019-02-14T14:03:38.498Z,24.28
2019-02-14T14:05:22.908Z,24.29
2019-02-14T14:07:07.330Z,24.28
2019-02-14T14:08:51.776Z,24.29
2019-02-14T14:10:36.202Z,24.34
2019-02-14T14:12:21.376Z,24.36
2019-02-14T14:14:06.868Z,24.41
2019-02-14T14:15:51.478Z,24.47
2019-02-14T14:17:35.987Z,24.48
2019-02-14T14:19:20.414Z,24.50
2019-02-14T14:21:04.842Z,24.53
2019-02-14T14:22:49.286Z,24.56
2019-02-14T14:24:33.710Z,24.57
2019-02-14T14:26:18.146Z,24.59
2019-02-14T14:28:02.583Z,24.58
2019-02-14T14:29:47.013Z,24.60
2019-02-14T14:31:31.418Z,24.65
2019-02-14T14:33:15.845Z,24.66
2019-02-14T14:35:00.247Z,24.68
2019-02-14T14:36:44.671Z,24.69
2019-02-14T14:38:29.075Z,24.71
2019-02-14T14:40:17.658Z,24.72
2019-02-14T14:42:03.426Z,24.74
2019-02-14T14:43:55.456Z,24.75
2019-02-14T14:45:50.601Z,24.76
2019-02-14T14:47:35.030Z,24.79
2019-02-14T14:49:19.463Z,24.79
2019-02-14T14:51:03.891Z,24.79
2019-02-14T14:52:48.617Z,24.79
2019-02-14T14:54:33.530Z,24.83
2019-02-14T14:56:18.394Z,24.86
2019-02-14T14:58:03.351Z,24.86
2019-02-14T14:59:48.217Z,24.88
2019-02-14T15:01:34.690Z,24.75
2019-02-14T15:03:19.576Z,24.67
2019-02-14T15:05:04.667Z,24.68
2019-02-14T15:06:49.458Z,24.70
2019-02-14T15:08:34.150Z,24.70
2019-02-14T15:10:18.994Z,24.77
2019-02-14T15:12:03.650Z,24.75
2019-02-14T15:13:48.246Z,24.76
2019-02-14T15:15:32.666Z,24.82
